Time;durP1;ratioP1;P1;durP2;ratioP2;P2;SDS_P1;SDS_P2;PMS_P1;PMS_P2;Temp;Humidity;BMP_temperature;BMP_pressure;BME280_temperature;BME280_humidity;BME280_pressure;Samples;Min_cycle;Max_cycle;Signal;HPM_P1;HPM_P2
2023/04/01 00:11:23;;;;;;;16.70;5.32;;;;;;;16.06;61.37;95693.69;5047837;28;20392;-30
2023/04/01 00:27:15;;;;;;;14.20;4.53;;;;;;;16.14;61.29;95664.66;5040064;28;20063;-30
2023/04/01 00:40:32;;;;;;;10.38;3.72;;;;;;;15.93;62.51;95646.78;5043599;28;20546;-30
2023/04/01 00:56:30;;;;;;;14.38;4.72;;;;;;;16.03;62.36;95636.44;5041069;28;20103;-31
2023/04/01 01:12:30;;;;;;;12.25;3.95;;;;;;;16.14;62.33;95642.78;5045618;28;20087;-31
2023/04/01 01:41:49;;;;;;;18.23;4.45;;;;;;;16.06;63.02;95606.16;5042265;28;20435;-30
2023/04/01 01:57:44;;;;;;;14.75;4.13;;;;;;;16.00;63.00;95610.81;5044447;28;20180;-30
2023/04/01 02:27:04;;;;;;;13.60;4.50;;;;;;;15.99;62.96;95564.78;5048621;28;20047;-31
2023/04/01 02:42:57;;;;;;;13.82;4.40;;;;;;;16.04;62.24;95586.75;5050830;28;20438;-30
2023/04/01 02:58:50;;;;;;;8.63;4.85;;;;;;;16.10;61.84;95579.31;5043504;28;20059;-31
2023/04/01 03:28:10;;;;;;;9.95;3.72;;;;;;;16.04;61.31;95570.34;5049122;28;20047;-30
2023/04/01 03:44:02;;;;;;;10.95;5.05;;;;;;;15.84;61.23;95614.09;5043912;28;20384;-30
2023/04/01 03:59:54;;;;;;;17.95;5.18;;;;;;;15.75;60.65;95556.84;5050323;28;20048;-30
2023/04/01 04:13:05;;;;;;;9.85;3.05;;;;;;;15.70;59.28;95568.50;5069344;28;20070;-30
2023/04/01 04:28:57;;;;;;;7.78;2.38;;;;;;;15.72;55.98;95557.81;5068482;28;20408;-29
2023/04/01 04:44:49;;;;;;;7.75;2.00;;;;;;;15.80;54.11;95539.75;5042886;28;20028;-30
2023/04/01 05:14:33;;;;;;;11.02;2.00;;;;;;;15.65;53.40;95567.19;5051892;28;20040;-30
2023/04/01 05:30:25;;;;;;;8.43;1.88;;;;;;;15.51;53.26;95592.59;5045051;28;20110;-31
2023/04/01 05:59:45;;;;;;;13.13;2.75;;;;;;;15.76;52.08;95641.13;5043854;28;20099;-30
2023/04/01 06:02:11;;;;;;;10.35;2.30;;;;;;;15.70;52.20;95648.50;5051736;28;20029;-31
2023/04/01 06:04:40;;;;;;;11.90;2.50;;;;;;;15.80;51.60;95640.91;5050088;28;20387;-30
2023/04/01 06:07:12;;;;;;;10.50;2.40;;;;;;;15.92;51.37;95653.50;5050774;28;20542;-30
2023/04/01 06:09:37;;;;;;;10.88;1.98;;;;;;;15.60;52.14;95658.06;5050072;28;20041;-30
2023/04/01 06:12:18;;;;;;;16.58;2.67;;;;;;;15.75;51.86;95660.72;5051561;28;20098;-30
2023/04/01 06:15:02;;;;;;;11.35;2.30;;;;;;;15.63;52.10;95659.09;5049939;28;20131;-30
2023/04/01 06:17:48;;;;;;;12.52;2.22;;;;;;;15.62;52.24;95654.84;5046998;28;20025;-30
2023/04/01 06:20:30;;;;;;;12.63;3.05;;;;;;;15.74;51.91;95673.66;5043689;28;20460;-31
2023/04/01 06:23:05;;;;;;;15.15;3.05;;;;;;;15.85;51.79;95673.03;5049577;28;20036;-32
2023/04/01 06:25:49;;;;;;;13.48;2.70;;;;;;;15.71;52.10;95676.56;5051359;28;20025;-30
2023/04/01 06:29:00;;;;;;;16.98;2.53;;;;;;;15.85;51.91;95675.75;5050562;28;20029;-30
2023/04/01 06:32:01;;;;;;;13.88;2.40;;;;;;;15.64;52.56;95677.00;5038336;28;20033;-33
2023/04/01 06:34:32;;;;;;;9.57;2.60;;;;;;;15.71;52.32;95682.03;5050918;28;20104;-31
2023/04/01 06:37:35;;;;;;;11.65;2.72;;;;;;;15.78;52.39;95679.66;5043419;28;20480;-30
2023/04/01 06:40:04;;;;;;;12.35;3.15;;;;;;;15.86;52.14;95685.47;5044557;28;20021;-30
2023/04/01 06:42:40;;;;;;;12.25;2.63;;;;;;;15.91;51.60;95684.03;5050067;28;20020;-30
2023/04/01 06:45:24;;;;;;;12.10;2.00;;;;;;;15.87;51.66;95684.25;5050073;28;20134;-30
2023/04/01 06:48:01;;;;;;;11.95;2.58;;;;;;;15.72;52.39;95689.00;5035189;28;20017;-31
2023/04/01 06:50:52;;;;;;;10.18;2.92;;;;;;;15.92;51.79;95694.50;5048724;28;20013;-31
2023/04/01 06:53:37;;;;;;;11.63;2.80;;;;;;;15.76;52.24;95697.78;5042935;28;20029;-30
2023/04/01 06:56:11;;;;;;;12.85;2.53;;;;;;;15.72;52.27;95702.69;5041145;28;20045;-30
2023/04/01 06:58:56;;;;;;;11.40;2.22;;;;;;;15.98;51.67;95698.03;5049294;28;20029;-30
2023/04/01 07:01:40;;;;;;;10.25;2.10;;;;;;;15.90;52.12;95699.69;5050044;28;20040;-29
2023/04/01 07:04:23;;;;;;;13.60;2.50;;;;;;;15.73;52.59;95701.47;5039759;28;20096;-30
2023/04/01 07:06:56;;;;;;;17.73;2.80;;;;;;;15.83;52.10;95700.09;5042067;28;20064;-30
2023/04/01 07:09:36;;;;;;;13.93;3.00;;;;;;;15.96;52.03;95705.22;5050532;28;20029;-31
2023/04/01 07:12:15;;;;;;;11.43;1.90;;;;;;;15.78;52.29;95715.22;5029666;28;20029;-30
2023/04/01 07:14:42;;;;;;;8.68;2.70;;;;;;;15.97;52.09;95704.75;5048944;28;20519;-30
2023/04/01 07:17:23;;;;;;;16.30;2.42;;;;;;;15.87;52.17;95706.13;5036460;28;20036;-30
2023/04/01 07:20:17;;;;;;;13.38;2.03;;;;;;;15.95;52.01;95712.66;5048549;28;20025;-30
2023/04/01 07:22:46;;;;;;;11.60;2.38;;;;;;;16.07;51.35;95721.78;5049750;28;20468;-29
2023/04/01 07:25:22;;;;;;;12.70;2.35;;;;;;;15.97;51.84;95717.66;5049428;28;20021;-30
2023/04/01 07:27:48;;;;;;;8.65;1.90;;;;;;;16.06;51.57;95733.97;5049463;28;20039;-30
2023/04/01 07:30:20;;;;;;;16.05;3.33;;;;;;;16.00;51.33;95733.88;5035142;28;20025;-30
2023/04/01 07:32:46;;;;;;;10.70;2.42;;;;;;;15.90;52.05;95737.22;5049909;28;20024;-30
2023/04/01 07:35:49;;;;;;;17.55;2.75;;;;;;;16.00;51.72;95741.31;5048362;28;20017;-30
2023/04/01 07:38:15;;;;;;;;;;;;;;;16.10;51.46;95737.97;5048911;28;20480;-30
2023/04/01 07:40:51;;;;;;;9.63;2.38;;;;;;;16.03;51.57;95732.94;5050196;28;19908;-31
2023/04/01 07:43:35;;;;;;;15.23;3.10;;;;;;;16.02;51.81;95745.09;5048693;28;20017;-31
2023/04/01 07:46:00;;;;;;;10.50;3.40;;;;;;;16.16;51.51;95738.81;5049857;28;20029;-31
2023/04/01 07:48:41;;;;;;;7.85;2.50;;;;;;;16.21;51.25;95744.81;5041186;28;20112;-30
2023/04/01 07:51:19;;;;;;;9.75;3.00;;;;;;;16.36;50.52;95740.00;5050315;28;20021;-30
2023/04/01 07:53:47;;;;;;;10.07;2.50;;;;;;;16.30;50.90;95733.75;5035864;28;20507;-30
2023/04/01 07:56:23;;;;;;;13.38;3.08;;;;;;;16.12;51.08;95740.22;5049464;28;20029;-30
2023/04/01 07:58:51;;;;;;;10.48;2.22;;;;;;;16.41;50.88;95731.13;5035647;28;20088;-32
2023/04/01 08:01:19;;;;;;;7.72;1.95;;;;;;;16.35;50.10;95742.00;5050045;28;20077;-30
2023/04/01 08:04:07;;;;;;;8.32;2.10;;;;;;;16.45;50.27;95742.59;5048593;28;20503;-30
2023/04/01 08:06:45;;;;;;;10.48;2.90;;;;;;;16.56;50.68;95741.97;5039892;28;20108;-31
2023/04/01 08:09:26;;;;;;;9.35;2.00;;;;;;;16.57;50.26;95743.50;5038726;28;20035;-30
2023/04/01 08:12:24;;;;;;;13.30;2.50;;;;;;;16.48;51.00;95742.38;5041616;28;20525;-30
2023/04/01 08:15:04;;;;;;;7.32;1.90;;;;;;;16.46;50.52;95739.38;5039534;28;20043;-30
2023/04/01 08:17:47;;;;;;;6.88;2.38;;;;;;;16.46;50.33;95738.63;5049756;28;20395;-30
2023/04/01 08:20:12;;;;;;;;;;;;;;;16.42;50.37;95746.31;5024581;28;20028;-31
2023/04/01 08:22:42;;;;;;;8.35;2.28;;;;;;;16.53;49.92;95743.69;5049805;28;19909;-30
2023/04/01 08:25:32;;;;;;;10.23;2.13;;;;;;;16.64;50.01;95741.09;5041968;28;20017;-30
2023/04/01 08:28:13;;;;;;;11.15;2.30;;;;;;;16.48;49.70;95744.38;5048112;28;20032;-30
2023/04/01 08:30:53;;;;;;;13.00;2.65;;;;;;;16.58;49.81;95750.44;5043348;28;20546;-30
2023/04/01 08:33:26;;;;;;;7.93;2.30;;;;;;;16.76;49.45;95750.16;5052236;28;20029;-30
2023/04/01 08:35:58;;;;;;;10.77;2.97;;;;;;;16.78;50.13;95751.19;5044504;28;20028;-31
2023/04/01 08:38:30;;;;;;;9.88;2.08;;;;;;;16.76;49.99;95756.41;5052441;28;20029;-30
2023/04/01 08:41:14;;;;;;;7.70;1.90;;;;;;;16.82;49.06;95759.19;5053251;28;20354;-31
2023/04/01 08:43:54;;;;;;;11.18;2.17;;;;;;;16.80;49.42;95751.47;5053171;28;20024;-31
2023/04/01 08:46:35;;;;;;;8.55;2.47;;;;;;;16.81;49.94;95757.69;5051921;28;20045;-31
2023/04/01 08:49:25;;;;;;;10.32;2.35;;;;;;;16.58;49.61;95753.94;5045853;28;20016;-30
2023/04/01 08:52:01;;;;;;;8.15;2.28;;;;;;;16.78;49.51;95756.69;5053567;28;20044;-29
2023/04/01 08:54:46;;;;;;;7.28;1.73;;;;;;;16.95;49.20;95751.34;5044538;28;20033;-30
2023/04/01 08:57:17;;;;;;;8.43;2.25;;;;;;;16.79;49.52;95752.69;5052856;28;20404;-29
2023/04/01 09:00:08;;;;;;;9.02;2.25;;;;;;;16.71;49.38;95757.09;5051939;28;20462;-30
2023/04/01 09:03:00;;;;;;;9.48;1.98;;;;;;;16.54;49.02;95761.63;5051199;28;20029;-30
2023/04/01 09:05:31;;;;;;;5.72;2.10;;;;;;;16.84;49.02;95765.69;5052303;28;20043;-29
2023/04/01 09:08:27;;;;;;;10.68;2.15;;;;;;;16.74;50.29;95758.88;5037901;28;20062;-29
2023/04/01 09:11:17;;;;;;;10.45;2.53;;;;;;;16.63;51.03;95761.50;5049951;28;20415;-29
2023/04/01 09:14:03;;;;;;;11.23;2.63;;;;;;;16.71;51.14;95759.06;5049498;28;20024;-29
2023/04/01 09:16:53;;;;;;;10.38;3.00;;;;;;;16.85;51.06;95760.97;5052887;28;20345;-29
2023/04/01 09:20:02;;;;;;;14.80;2.88;;;;;;;16.83;51.57;95766.91;5052656;28;20454;-30
2023/04/01 09:22:46;;;;;;;12.50;2.72;;;;;;;16.81;50.58;95761.16;5052547;28;20041;-29
2023/04/01 09:25:14;;;;;;;9.13;1.80;;;;;;;16.95;49.56;95769.75;5051385;28;20140;-29
2023/04/01 09:28:12;;;;;;;8.25;2.28;;;;;;;16.99;49.31;95773.03;5052271;28;20036;-30
2023/04/01 09:30:56;;;;;;;7.18;1.83;;;;;;;16.93;48.59;95769.50;5035457;28;20048;-29
2023/04/01 09:33:59;;;;;;;8.25;2.08;;;;;;;16.94;48.64;95762.81;5052202;28;20079;-29
2023/04/01 09:37:02;;;;;;;8.55;1.90;;;;;;;16.96;48.50;95752.84;5051885;28;20028;-29
2023/04/01 09:39:38;;;;;;;7.85;1.60;;;;;;;16.86;48.23;95755.00;5051333;28;20047;-29
2023/04/01 09:42:15;;;;;;;8.70;1.70;;;;;;;16.79;48.96;95766.41;5049827;28;20515;-31
2023/04/01 09:45:08;;;;;;;7.18;2.10;;;;;;;16.92;48.56;95751.56;5039652;28;20028;-29
2023/04/01 09:48:05;;;;;;;6.00;1.50;;;;;;;16.90;49.43;95759.50;5048437;28;20017;-31
2023/04/01 09:50:46;;;;;;;11.23;1.80;;;;;;;17.04;49.65;95742.97;5050525;28;20392;-29
2023/04/01 09:53:40;;;;;;;13.52;2.22;;;;;;;17.03;49.80;95744.19;5050453;28;20128;-30
2023/04/01 09:56:08;;;;;;;9.23;2.30;;;;;;;17.00;49.90;95736.94;5046510;28;20041;-29
2023/04/01 09:58:55;;;;;;;6.80;2.47;;;;;;;17.09;49.71;95747.72;5050680;28;20538;-29
2023/04/01 10:01:43;;;;;;;13.55;3.20;;;;;;;17.09;49.39;95744.25;5051461;28;20053;-29
2023/04/01 10:04:27;;;;;;;11.63;2.90;;;;;;;17.32;48.63;95742.41;5041658;28;20021;-30
2023/04/01 10:07:16;;;;;;;11.57;2.15;;;;;;;17.33;48.63;95733.72;5043351;28;20071;-29
2023/04/01 10:10:14;;;;;;;11.48;2.42;;;;;;;17.05;48.89;95717.09;5050117;28;20056;-29
2023/04/01 10:13:03;;;;;;;9.18;2.30;;;;;;;17.04;48.29;95723.78;5042527;28;20024;-31
2023/04/01 10:15:56;;;;;;;11.10;1.70;;;;;;;17.15;48.06;95720.38;5051496;28;20033;-29
2023/04/01 10:18:53;;;;;;;11.13;2.47;;;;;;;17.16;48.02;95719.16;5043951;28;20053;-29
2023/04/01 10:21:33;;;;;;;7.22;1.95;;;;;;;17.18;47.99;95730.38;5039246;28;20449;-29
2023/04/01 10:24:04;;;;;;;8.95;2.08;;;;;;;17.28;47.58;95718.00;5049604;28;20033;-29
2023/04/01 10:27:00;;;;;;;5.30;1.45;;;;;;;17.16;48.23;95719.91;5051278;28;20029;-32
2023/04/01 10:29:40;;;;;;;10.45;2.38;;;;;;;17.13;47.98;95717.38;5034462;28;20028;-30
2023/04/01 10:32:37;;;;;;;6.22;1.60;;;;;;;17.30;47.81;95704.56;5048756;28;20350;-30
2023/04/01 10:35:45;;;;;;;6.60;2.33;;;;;;;17.21;47.72;95704.72;5038520;28;20045;-30
2023/04/01 10:38:58;;;;;;;7.95;2.67;;;;;;;17.26;47.60;95708.75;5049693;28;20025;-29
2023/04/01 10:41:56;;;;;;;6.70;1.83;;;;;;;17.30;47.57;95712.03;5038376;28;20396;-29
2023/04/01 10:45:09;;;;;;;5.70;2.00;;;;;;;17.24;46.84;95714.72;5010260;28;20036;-29
2023/04/01 10:48:09;;;;;;;9.93;2.10;;;;;;;17.36;46.64;95713.56;5031136;28;20034;-30
2023/04/01 10:50:50;;;;;;;6.60;1.60;;;;;;;17.37;46.67;95704.09;5038602;28;20075;-29
2023/04/01 10:54:00;;;;;;;6.88;1.40;;;;;;;17.33;46.86;95706.31;5036948;28;20553;-30
2023/04/01 10:57:07;;;;;;;7.05;2.55;;;;;;;17.30;46.82;95696.34;5018030;28;20100;-29
2023/04/01 10:59:54;;;;;;;10.77;2.03;;;;;;;17.34;47.29;95699.59;4967057;28;20097;-32
2023/04/01 11:02:28;;;;;;;7.15;1.70;;;;;;;17.34;47.34;95707.06;4970161;28;20026;-29
2023/04/01 11:05:11;;;;;;;10.70;1.88;;;;;;;17.37;47.51;95697.88;4962637;28;20035;-29
2023/04/01 11:08:19;;;;;;;10.27;1.98;;;;;;;17.31;47.98;95695.06;4968589;28;20031;-29
2023/04/01 11:11:03;;;;;;;13.27;2.10;;;;;;;17.41;48.11;95693.66;4967259;28;20045;-30
2023/04/01 11:13:54;;;;;;;6.97;1.83;;;;;;;17.54;47.99;95690.50;4966296;28;20546;-29
2023/04/01 11:17:04;;;;;;;9.65;1.98;;;;;;;17.42;48.34;95703.41;4969964;28;20026;-29
2023/04/01 11:19:48;;;;;;;10.93;2.05;;;;;;;17.49;48.66;95702.19;4970343;28;20035;-29
2023/04/01 11:22:32;;;;;;;9.05;2.10;;;;;;;17.47;48.52;95705.41;4970305;28;20129;-30
2023/04/01 11:25:15;;;;;;;7.95;2.05;;;;;;;17.53;47.99;95694.50;4969207;28;20027;-30
2023/04/01 11:28:09;;;;;;;7.93;2.60;;;;;;;17.62;48.04;95705.25;4970530;28;20030;-29
2023/04/01 11:30:54;;;;;;;8.50;2.13;;;;;;;17.61;48.02;95692.78;4967340;28;20034;-29
2023/04/01 11:33:28;;;;;;;11.32;1.85;;;;;;;17.66;47.26;95691.34;4969777;28;20440;-29
2023/04/01 11:36:12;;;;;;;7.57;1.60;;;;;;;17.46;47.74;95690.19;4984050;28;20402;-29
2023/04/01 11:38:43;;;;;;;10.23;1.73;;;;;;;17.49;47.32;95696.69;4981811;28;20470;-29
2023/04/01 11:41:37;;;;;;;8.05;1.80;;;;;;;17.63;46.85;95686.81;5007669;28;20030;-30
2023/04/01 11:44:23;;;;;;;8.55;1.60;;;;;;;17.59;47.61;95687.78;5009132;28;20034;-29
2023/04/01 11:46:56;;;;;;;5.45;1.60;;;;;;;17.63;47.33;95686.81;4998561;28;20497;-29
2023/04/01 11:49:56;;;;;;;10.50;1.65;;;;;;;17.58;47.26;95672.56;5008027;28;20069;-30
2023/04/01 11:52:58;;;;;;;7.00;1.50;;;;;;;17.68;47.09;95677.91;5008013;28;20061;-29
2023/04/01 11:55:31;;;;;;;13.20;2.20;;;;;;;17.55;46.83;95670.84;5032648;28;20489;-30
2023/04/01 11:58:18;;;;;;;10.32;1.83;;;;;;;17.63;47.13;95681.31;5049797;28;20051;-30
2023/04/01 12:01:05;;;;;;;9.30;2.22;;;;;;;17.68;47.40;95675.16;5048621;28;20478;-29
2023/04/01 12:03:51;;;;;;;9.05;1.83;;;;;;;17.70;47.84;95683.63;5048382;28;20384;-29
2023/04/01 12:06:35;;;;;;;12.02;2.10;;;;;;;17.72;47.85;95672.91;5052797;28;20364;-30
2023/04/01 12:09:45;;;;;;;12.32;2.10;;;;;;;17.62;48.00;95668.84;5053701;28;20452;-29
2023/04/01 12:12:31;;;;;;;9.00;1.95;;;;;;;17.64;48.23;95661.69;5045921;28;20515;-30
2023/04/01 12:15:23;;;;;;;11.48;2.20;;;;;;;17.62;48.49;95668.84;5052228;28;20030;-30
2023/04/01 12:18:04;;;;;;;9.52;2.53;;;;;;;17.59;48.96;95651.38;5052091;28;20096;-30
2023/04/01 12:20:35;;;;;;;12.68;2.22;;;;;;;17.53;48.97;95645.91;5046936;28;20021;-31
2023/04/01 12:23:10;;;;;;;10.45;2.33;;;;;;;17.67;48.53;95659.94;5052201;28;20443;-29
2023/04/01 12:25:47;;;;;;;12.95;2.05;;;;;;;17.62;48.34;95649.66;5053275;28;20025;-29
2023/04/01 12:28:25;;;;;;;9.80;1.80;;;;;;;17.70;48.14;95658.94;5052642;28;20049;-30
2023/04/01 12:31:15;;;;;;;10.95;2.22;;;;;;;17.62;47.89;95658.63;5045915;28;20025;-30
2023/04/01 12:34:17;;;;;;;10.68;2.10;;;;;;;17.71;47.55;95660.44;5043745;28;20032;-30
2023/04/01 12:37:14;;;;;;;13.15;2.20;;;;;;;17.66;47.50;95666.66;5046329;28;20036;-30
2023/04/01 12:39:51;;;;;;;11.18;2.20;;;;;;;17.76;46.95;95657.00;5041603;28;20083;-29
2023/04/01 12:42:51;;;;;;;14.10;2.08;;;;;;;17.64;47.00;95641.72;5045629;28;20017;-29
2023/04/01 12:45:23;;;;;;;13.93;2.35;;;;;;;17.63;47.29;95651.16;5042379;28;20512;-30
2023/04/01 12:48:19;;;;;;;16.60;2.45;;;;;;;17.57;47.35;95645.63;5048575;28;20025;-29
2023/04/01 12:51:03;;;;;;;10.30;2.13;;;;;;;17.57;47.39;95632.69;5040010;28;20017;-29
2023/04/01 12:53:43;;;;;;;14.07;2.35;;;;;;;17.62;48.05;95633.22;5045074;28;20369;-29
2023/04/01 12:56:45;;;;;;;11.80;2.38;;;;;;;17.54;48.17;95641.91;5051643;28;20021;-29
2023/04/01 12:59:40;;;;;;;13.05;2.15;;;;;;;17.59;48.90;95635.69;5053066;28;20017;-29
2023/04/01 13:02:16;;;;;;;13.77;2.42;;;;;;;17.67;48.50;95629.78;5042509;28;20439;-29
2023/04/01 13:04:47;;;;;;;7.97;1.70;;;;;;;17.68;48.53;95634.03;5051527;28;20063;-29
2023/04/01 13:07:26;;;;;;;12.93;1.85;;;;;;;17.68;48.68;95636.78;5051093;28;20017;-29
2023/04/01 13:10:03;;;;;;;13.05;3.30;;;;;;;17.73;48.42;95616.84;5051574;28;20036;-30
2023/04/01 13:13:02;;;;;;;11.57;1.80;;;;;;;17.59;48.87;95626.72;5045371;28;20039;-29
2023/04/01 13:15:31;;;;;;;10.85;2.42;;;;;;;17.63;48.75;95627.28;5052740;28;20029;-29
2023/04/01 13:17:57;;;;;;;12.70;2.40;;;;;;;17.64;48.87;95625.28;5050755;28;20037;-30
2023/04/01 13:20:37;;;;;;;14.82;2.92;;;;;;;17.63;48.82;95630.00;5052285;28;20020;-30
2023/04/01 13:23:15;;;;;;;13.18;2.03;;;;;;;17.54;48.84;95619.22;5051034;28;20102;-29
2023/04/01 13:25:50;;;;;;;8.70;2.25;;;;;;;17.66;48.66;95617.31;5052482;28;20055;-30
2023/04/01 13:28:32;;;;;;;14.48;2.55;;;;;;;17.74;48.56;95615.59;5052021;28;20526;-30
2023/04/01 13:31:22;;;;;;;11.73;2.33;;;;;;;17.70;48.70;95621.31;5043562;28;20103;-29
2023/04/01 13:34:06;;;;;;;14.20;2.30;;;;;;;17.71;48.68;95622.81;5044718;28;20031;-29
2023/04/01 13:36:47;;;;;;;17.77;2.72;;;;;;;17.65;48.46;95621.28;5039585;28;20028;-30
2023/04/01 13:39:32;;;;;;;11.20;2.60;;;;;;;17.60;48.92;95620.75;5050757;28;20465;-30
2023/04/01 13:42:12;;;;;;;10.18;2.97;;;;;;;17.64;48.56;95622.53;5052072;28;20480;-29
2023/04/01 13:44:50;;;;;;;10.65;1.90;;;;;;;17.68;48.45;95615.56;5038613;28;20024;-29
2023/04/01 13:47:43;;;;;;;15.48;2.20;;;;;;;17.63;48.16;95608.06;5050464;28;20361;-29
2023/04/01 13:50:23;;;;;;;9.90;2.40;;;;;;;17.77;47.86;95606.38;5048747;28;20016;-29
2023/04/01 13:52:48;;;;;;;8.85;2.67;;;;;;;17.59;48.25;95607.53;5052228;28;20021;-29
2023/04/01 13:55:52;;;;;;;9.07;2.05;;;;;;;17.65;48.38;95607.59;5051416;28;20025;-30
2023/04/01 13:58:36;;;;;;;;;;;;;;;17.68;48.10;95599.09;5045955;28;20067;-30
2023/04/01 14:01:19;;;;;;;16.90;2.90;;;;;;;17.64;48.38;95600.59;5040286;28;19917;-30
2023/04/01 14:03:45;;;;;;;;;;;;;;;17.63;48.78;95599.84;5050962;28;20079;-30
2023/04/01 14:06:49;;;;;;;13.27;2.65;;;;;;;17.66;48.43;95598.13;5051665;28;19908;-29
2023/04/01 14:09:40;;;;;;;13.98;2.35;;;;;;;17.59;48.88;95589.09;5038508;28;20036;-30
2023/04/01 14:12:10;;;;;;;11.88;2.13;;;;;;;17.73;48.39;95584.69;5028853;28;20361;-29
2023/04/01 14:15:06;;;;;;;11.55;2.08;;;;;;;17.68;48.70;95590.16;5041036;28;20388;-29
2023/04/01 14:17:37;;;;;;;12.50;2.83;;;;;;;17.69;48.77;95581.41;5033001;28;20168;-30
2023/04/01 14:20:37;;;;;;;12.98;2.35;;;;;;;17.64;48.80;95575.94;5031300;28;20029;-29
2023/04/01 14:23:08;;;;;;;9.20;2.88;;;;;;;17.78;49.09;95577.72;5038883;28;20124;-30
2023/04/01 14:26:03;;;;;;;11.80;3.00;;;;;;;17.66;48.49;95581.66;5015756;28;20457;-29
2023/04/01 14:28:50;;;;;;;11.65;1.58;;;;;;;17.63;48.54;95571.66;5032628;28;20415;-29
2023/04/01 14:31:40;;;;;;;14.15;1.92;;;;;;;17.80;47.74;95577.97;5039073;28;20032;-31
2023/04/01 14:34:30;;;;;;;11.57;2.00;;;;;;;17.85;47.58;95563.50;5039269;28;20557;-31
2023/04/01 14:37:16;;;;;;;13.57;2.42;;;;;;;17.65;47.87;95566.47;5039038;28;20072;-30
2023/04/01 14:40:07;;;;;;;11.27;1.83;;;;;;;17.65;47.70;95564.47;5038812;28;20040;-31
2023/04/01 14:43:03;;;;;;;13.90;2.22;;;;;;;17.75;46.99;95556.75;5050924;28;20060;-30
2023/04/01 14:45:56;;;;;;;10.25;1.92;;;;;;;17.82;47.14;95550.78;5049808;28;20060;-30
2023/04/01 14:48:42;;;;;;;12.03;3.60;;;;;;;17.77;46.51;95566.00;5042130;28;20032;-30
2023/04/01 14:51:20;;;;;;;10.43;2.30;;;;;;;17.71;45.73;95556.25;5050651;28;20032;-29
2023/04/01 14:53:56;;;;;;;14.43;3.03;;;;;;;17.90;45.50;95555.31;5030565;28;20024;-29
2023/04/01 14:56:58;;;;;;;10.13;1.85;;;;;;;17.80;45.16;95565.00;5049246;28;20021;-29
2023/04/01 14:59:24;;;;;;;10.38;2.08;;;;;;;17.85;44.88;95566.25;5044777;28;20021;-29
2023/04/01 15:02:08;;;;;;;10.38;1.75;;;;;;;17.71;45.08;95567.22;5050565;28;20021;-31
2023/04/01 15:05:07;;;;;;;8.63;1.80;;;;;;;17.86;45.46;95570.50;5048702;28;20013;-30
2023/04/01 15:07:58;;;;;;;6.10;1.55;;;;;;;17.82;45.58;95580.97;5049325;28;20034;-29
2023/04/01 15:10:49;;;;;;;13.50;2.70;;;;;;;17.82;45.96;95580.97;5042555;28;20028;-29
2023/04/01 15:13:32;;;;;;;12.93;2.20;;;;;;;18.02;46.11;95575.28;5043474;28;20036;-31
2023/04/01 15:16:30;;;;;;;9.00;2.43;;;;;;;17.94;46.35;95582.47;5049093;28;20025;-29
2023/04/01 15:19:23;;;;;;;13.45;2.65;;;;;;;17.57;47.36;95574.34;5038934;28;20068;-29
2023/04/01 15:22:22;;;;;;;9.07;2.38;;;;;;;17.86;47.35;95576.75;5048583;28;20043;-29
2023/04/01 15:25:16;;;;;;;7.07;1.75;;;;;;;17.85;47.88;95566.25;5049168;28;20040;-29
2023/04/01 15:27:42;;;;;;;;;;;;;;;18.00;47.27;95564.06;5042791;28;20037;-29
2023/04/01 15:30:18;;;;;;;11.57;1.90;;;;;;;17.89;47.71;95575.00;5041527;28;19917;-29
2023/04/01 15:33:01;;;;;;;13.70;2.10;;;;;;;17.89;48.04;95569.53;5050152;28;20024;-31
2023/04/01 15:35:30;;;;;;;11.32;2.00;;;;;;;17.98;47.53;95577.53;5042030;28;20033;-29
2023/04/01 15:38:16;;;;;;;11.77;1.98;;;;;;;17.74;48.44;95582.69;5049989;28;20049;-30
2023/04/01 15:41:10;;;;;;;11.60;3.83;;;;;;;18.07;47.01;95576.53;5038767;28;20468;-29
2023/04/01 15:43:45;;;;;;;12.38;3.22;;;;;;;17.94;47.71;95577.75;5050373;28;20415;-29
2023/04/01 15:46:20;;;;;;;18.45;4.32;;;;;;;17.98;47.40;95569.28;5048804;28;20392;-29
2023/04/01 15:49:10;;;;;;;14.82;3.33;;;;;;;17.93;47.92;95570.00;5030328;28;20081;-32
2023/04/01 15:51:48;;;;;;;13.65;4.22;;;;;;;18.04;47.61;95567.31;5049070;28;20520;-30
2023/04/01 15:54:51;;;;;;;14.98;4.28;;;;;;;17.91;47.84;95567.78;5042822;28;20037;-30
2023/04/01 15:57:25;;;;;;;14.68;3.22;;;;;;;17.76;48.66;95563.75;5043145;28;20028;-29
2023/04/01 16:00:23;;;;;;;16.42;3.20;;;;;;;17.79;47.81;95573.75;5035736;28;20094;-30
2023/04/01 16:03:13;;;;;;;10.75;2.53;;;;;;;17.94;48.06;95580.50;5048749;28;20087;-29
2023/04/01 16:06:00;;;;;;;14.23;2.50;;;;;;;17.89;48.10;95577.75;5048535;28;20025;-29
2023/04/01 16:08:53;;;;;;;13.07;2.60;;;;;;;17.76;47.53;95586.44;5049751;28;20020;-30
2023/04/01 16:11:18;;;;;;;16.55;2.47;;;;;;;17.97;47.16;95588.97;5034918;28;20029;-29
2023/04/01 16:13:52;;;;;;;11.60;3.17;;;;;;;17.78;46.92;95588.69;5046809;28;20534;-29
2023/04/01 16:16:36;;;;;;;13.52;3.13;;;;;;;17.93;47.01;95583.72;5049805;28;20043;-29
2023/04/01 16:19:08;;;;;;;10.48;3.42;;;;;;;17.81;46.81;95577.47;5040391;28;20080;-32
2023/04/01 16:22:00;;;;;;;13.27;2.88;;;;;;;17.95;46.63;95575.75;5049762;28;20028;-30
2023/04/01 16:24:55;;;;;;;14.18;3.40;;;;;;;17.81;46.71;95571.22;5033643;28;20068;-30
2023/04/01 16:27:26;;;;;;;10.38;3.22;;;;;;;17.72;47.83;95563.22;5036307;28;20052;-29
2023/04/01 16:30:25;;;;;;;12.82;3.45;;;;;;;17.64;47.89;95567.69;5041621;28;20061;-30
2023/04/01 16:33:10;;;;;;;11.80;2.38;;;;;;;17.86;46.01;95584.22;5043334;28;20025;-29
2023/04/01 16:35:49;;;;;;;20.02;5.03;;;;;;;17.78;45.92;95572.25;5038155;28;20021;-30
2023/04/01 16:38:30;;;;;;;11.80;3.60;;;;;;;17.88;46.03;95581.72;5047667;28;20415;-29
2023/04/01 16:41:16;;;;;;;12.18;3.30;;;;;;;17.72;45.80;95568.72;5045223;28;20017;-29
2023/04/01 16:43:54;;;;;;;13.80;3.75;;;;;;;17.71;45.78;95569.94;5048073;28;20033;-29
2023/04/01 16:46:43;;;;;;;23.30;7.60;;;;;;;17.60;45.80;95565.91;5048102;28;20066;-30
2023/04/01 16:49:11;;;;;;;16.00;5.47;;;;;;;17.72;45.51;95568.72;5049252;28;20127;-29
2023/04/01 16:51:56;;;;;;;19.92;5.72;;;;;;;17.71;45.73;95562.47;5042956;28;20050;-29
2023/04/01 16:54:43;;;;;;;14.43;5.45;;;;;;;17.63;45.59;95557.94;5044962;28;20425;-29
2023/04/01 16:57:22;;;;;;;18.92;5.25;;;;;;;17.80;45.94;95553.31;5053029;28;20017;-30
2023/04/01 17:00:14;;;;;;;10.20;4.10;;;;;;;17.74;46.84;95549.78;5052572;28;20472;-29
2023/04/01 17:03:17;;;;;;;14.05;4.18;;;;;;;17.67;46.89;95553.75;5051175;28;20083;-30
2023/04/01 17:05:55;;;;;;;18.00;3.90;;;;;;;17.70;46.77;95555.50;5038077;28;20403;-29
2023/04/01 17:08:49;;;;;;;18.63;4.47;;;;;;;17.70;46.61;95560.22;5052943;28;20051;-29
2023/04/01 17:11:28;;;;;;;15.32;5.32;;;;;;;17.57;46.88;95566.88;5034617;28;20037;-29
2023/04/01 17:14:02;;;;;;;18.10;6.53;;;;;;;17.49;46.96;95571.34;5050720;28;20017;-29
2023/04/01 17:16:47;;;;;;;17.60;5.57;;;;;;;17.66;46.69;95576.19;5052599;28;20086;-29
2023/04/01 17:19:36;;;;;;;13.77;5.07;;;;;;;17.50;46.76;95578.34;5052541;28;20589;-31
2023/04/01 17:22:12;;;;;;;18.10;5.25;;;;;;;17.48;47.09;95583.56;5051218;28;20025;-29
2023/04/01 17:25:05;;;;;;;17.65;4.85;;;;;;;17.56;46.91;95579.09;5052414;28;20467;-30
2023/04/01 17:27:30;;;;;;;19.20;4.72;;;;;;;17.60;46.82;95576.88;5014558;28;20113;-29
2023/04/01 17:30:18;;;;;;;15.43;4.07;;;;;;;17.48;47.33;95572.59;5039905;28;20097;-30
2023/04/01 17:33:07;;;;;;;18.33;3.58;;;;;;;17.66;47.17;95581.66;5044037;28;20024;-30
2023/04/01 17:35:42;;;;;;;10.13;2.90;;;;;;;17.69;47.17;95572.44;5039824;28;20104;-30
2023/04/01 17:38:35;;;;;;;12.45;3.22;;;;;;;17.62;47.81;95581.13;5050819;28;20028;-31
2023/04/01 17:41:01;;;;;;;13.23;3.58;;;;;;;17.57;47.89;95577.09;5051532;28;20036;-30
2023/04/01 17:44:23;;;;;;;15.85;3.22;;;;;;;17.48;48.19;95580.81;5050984;28;20014;-30
2023/04/01 17:46:54;;;;;;;14.23;5.45;;;;;;;17.52;47.93;95595.03;5039218;28;20071;-29
2023/04/01 17:49:25;;;;;;;12.95;4.90;;;;;;;17.60;47.93;95609.03;5041113;28;20052;-31
2023/04/01 17:52:25;;;;;;;14.88;5.93;;;;;;;17.42;48.16;95615.69;5049828;28;20068;-29
2023/04/01 17:55:42;;;;;;;20.55;5.60;;;;;;;17.60;47.65;95618.00;5037102;28;20021;-30
2023/04/01 17:58:21;;;;;;;13.27;4.32;;;;;;;17.39;48.47;95619.41;4940705;29;20043;-29